createdAt,value
2022-12-12T00:04:17.905Z,-0.65
2022-12-12T00:09:21.007Z,-0.70
2022-12-12T00:14:28.661Z,-0.80
2022-12-12T00:19:31.862Z,-0.89
2022-12-12T00:24:34.922Z,-0.90
2022-12-12T00:29:39.292Z,-0.86
2022-12-12T00:34:42.332Z,-0.87
2022-12-12T00:39:45.551Z,-0.95
2022-12-12T00:44:50.004Z,-0.97
2022-12-12T00:49:53.150Z,-1.05
2022-12-12T00:54:59.236Z,-1.11
2022-12-12T01:00:03.715Z,-1.17
2022-12-12T01:05:07.745Z,-1.28
2022-12-12T01:10:12.024Z,-1.29
2022-12-12T01:15:16.603Z,-1.34
2022-12-12T01:20:23.263Z,-1.38
2022-12-12T01:25:26.224Z,-1.46
2022-12-12T01:30:30.940Z,-1.49
2022-12-12T01:35:35.593Z,-1.50
2022-12-12T01:40:38.988Z,-1.52
2022-12-12T01:46:30.554Z,-1.58
2022-12-12T01:51:35.377Z,-1.63
2022-12-12T01:56:40.742Z,-1.71
2022-12-12T02:01:44.264Z,-1.72
2022-12-12T02:06:50.284Z,-1.75
2022-12-12T02:11:55.687Z,-1.79
2022-12-12T02:18:02.246Z,-1.84
2022-12-12T02:23:41.894Z,-1.84
2022-12-12T02:29:14.917Z,-1.90
2022-12-12T02:34:28.381Z,-1.90
2022-12-12T02:39:40.963Z,-1.97
2022-12-12T02:44:53.369Z,-1.97
2022-12-12T02:50:02.949Z,-2.02
2022-12-12T02:55:06.752Z,-2.05
2022-12-12T03:00:12.624Z,-2.10
2022-12-12T03:05:51.254Z,-2.14
2022-12-12T03:10:58.887Z,-2.17
2022-12-12T03:16:19.060Z,-2.20
2022-12-12T03:21:29.280Z,-2.25
2022-12-12T03:26:37.142Z,-2.30
2022-12-12T03:31:45.894Z,-2.31
2022-12-12T03:36:57.986Z,-2.36
2022-12-12T03:42:09.788Z,-2.38
2022-12-12T03:47:16.883Z,-2.42
2022-12-12T03:52:28.119Z,-2.47
2022-12-12T03:57:35.921Z,-2.52
2022-12-12T04:02:43.046Z,-2.53
2022-12-12T04:07:52.912Z,-2.59
2022-12-12T04:13:07.187Z,-2.63
2022-12-12T04:18:18.180Z,-2.62
2022-12-12T04:23:32.974Z,-2.65
2022-12-12T04:28:41.169Z,-2.68
2022-12-12T04:33:50.621Z,-2.70
2022-12-12T04:38:55.988Z,-2.74
2022-12-12T04:44:02.330Z,-2.80
2022-12-12T04:49:09.184Z,-2.82
2022-12-12T04:54:19.509Z,-2.83
2022-12-12T04:59:23.067Z,-2.86
2022-12-12T05:04:31.226Z,-2.91
2022-12-12T05:09:36.429Z,-2.96
2022-12-12T05:14:39.460Z,-2.98
2022-12-12T05:19:43.451Z,-2.99
2022-12-12T05:24:47.953Z,-3.05
2022-12-12T05:29:50.994Z,-3.02
2022-12-12T05:34:54.098Z,-3.11
2022-12-12T05:39:58.728Z,-3.11
2022-12-12T05:45:02.354Z,-3.16
2022-12-12T05:50:05.982Z,-3.17
2022-12-12T05:55:10.850Z,-3.20
2022-12-12T06:00:15.458Z,-3.23
2022-12-12T06:05:18.682Z,-3.26
2022-12-12T06:10:23.112Z,-3.34
2022-12-12T06:15:29.019Z,-3.32
2022-12-12T06:20:32.573Z,-3.33
2022-12-12T06:25:36.980Z,-3.37
2022-12-12T06:30:40.071Z,-3.43
2022-12-12T06:35:43.221Z,-3.44
2022-12-12T06:40:47.631Z,-3.44
2022-12-12T06:45:50.640Z,-3.47
2022-12-12T06:50:53.702Z,-3.49
2022-12-12T06:56:00.013Z,-3.53
2022-12-12T07:01:03.413Z,-3.55
2022-12-12T07:06:07.166Z,-3.57
2022-12-12T07:11:13.686Z,-3.58
2022-12-12T07:16:17.075Z,-3.60
2022-12-12T07:21:21.585Z,-3.61
2022-12-12T07:26:27.456Z,-3.65
2022-12-12T07:31:30.625Z,-3.69
2022-12-12T07:36:33.850Z,-3.69
2022-12-12T07:41:40.910Z,-3.72
2022-12-12T07:46:44.239Z,-3.72
2022-12-12T07:51:49.396Z,-3.78
2022-12-12T07:56:54.361Z,-3.74
2022-12-12T08:02:00.759Z,-3.79
2022-12-12T08:07:08.295Z,-3.72
2022-12-12T08:12:13.210Z,-3.70
2022-12-12T08:17:16.308Z,-3.66
2022-12-12T08:22:19.623Z,-3.65
2022-12-12T08:27:24.241Z,-3.61
2022-12-12T08:32:27.325Z,-3.57
2022-12-12T08:37:31.155Z,-3.54
2022-12-12T08:42:36.666Z,-3.55
2022-12-12T08:47:39.894Z,-3.51
2022-12-12T08:52:42.839Z,-3.43
2022-12-12T08:57:47.234Z,-3.28
2022-12-12T09:02:50.403Z,-3.07
2022-12-12T09:07:53.503Z,-2.88
2022-12-12T09:12:59.813Z,-2.69
2022-12-12T09:18:09.275Z,-2.51
2022-12-12T09:23:12.492Z,-2.27
2022-12-12T09:28:19.818Z,-2.16
2022-12-12T09:33:22.932Z,-1.94
2022-12-12T09:38:25.939Z,-1.70
2022-12-12T09:43:34.863Z,-1.55
2022-12-12T09:48:43.249Z,-1.37
2022-12-12T09:53:48.115Z,-1.20
2022-12-12T09:58:59.515Z,-1.03
2022-12-12T10:04:14.833Z,-0.82
2022-12-12T10:09:40.238Z,-0.60
2022-12-12T10:14:49.258Z,-0.43
2022-12-12T10:19:55.124Z,-0.20
2022-12-12T10:25:05.121Z,-0.07
2022-12-12T10:30:17.026Z,0.11
2022-12-12T10:35:28.963Z,0.22
2022-12-12T10:40:44.927Z,0.35
2022-12-12T10:46:10.544Z,0.40
2022-12-12T10:51:17.723Z,0.42
2022-12-12T10:56:22.786Z,0.48
2022-12-12T11:06:56.833Z,0.50
2022-12-12T11:12:01.871Z,0.55
2022-12-12T11:17:22.003Z,0.70
2022-12-12T11:22:26.449Z,0.73
2022-12-12T11:27:33.527Z,0.77
2022-12-12T11:32:42.744Z,0.81
2022-12-12T11:37:49.808Z,0.86
2022-12-12T11:42:57.360Z,0.80
2022-12-12T11:48:02.125Z,0.72
2022-12-12T11:53:09.637Z,0.71
2022-12-12T11:58:21.593Z,0.73
2022-12-12T12:03:30.679Z,0.78
2022-12-12T12:08:49.010Z,0.89
2022-12-12T12:14:13.686Z,0.92
2022-12-12T12:19:26.839Z,0.96
2022-12-12T12:24:46.409Z,0.95
2022-12-12T12:30:07.587Z,0.92
2022-12-12T12:35:24.965Z,0.98
2022-12-12T12:40:41.800Z,1.10
2022-12-12T12:45:49.768Z,1.14
2022-12-12T12:51:04.926Z,1.30
2022-12-12T12:56:23.615Z,1.39
2022-12-12T13:01:35.248Z,1.46
2022-12-12T13:06:46.623Z,1.51
2022-12-12T13:11:53.569Z,1.60
2022-12-12T13:16:57.939Z,1.65
2022-12-12T13:22:07.490Z,1.74
2022-12-12T13:27:16.767Z,1.80
2022-12-12T13:33:09.677Z,1.86
2022-12-12T13:38:23.353Z,2.00
2022-12-12T13:43:41.263Z,2.11
2022-12-12T13:48:50.236Z,2.12
2022-12-12T13:54:35.484Z,2.07
2022-12-12T14:00:26.868Z,2.16
2022-12-12T14:05:33.153Z,2.19
2022-12-12T14:10:41.280Z,2.33
2022-12-12T14:15:46.067Z,2.47
2022-12-12T14:20:58.142Z,2.42
2022-12-12T14:26:23.491Z,2.51
2022-12-12T14:31:34.846Z,2.54
2022-12-12T14:37:09.932Z,2.53
2022-12-12T14:42:26.273Z,2.46
2022-12-12T14:47:29.596Z,2.35
2022-12-12T14:52:33.184Z,2.28
2022-12-12T14:57:38.030Z,2.23
2022-12-12T15:02:41.223Z,2.14
2022-12-12T15:07:44.423Z,2.00
2022-12-12T15:12:48.962Z,1.78
2022-12-12T15:17:53.189Z,1.60
2022-12-12T15:22:58.761Z,1.32
2022-12-12T15:28:04.171Z,1.04
2022-12-12T15:33:10.102Z,0.79
2022-12-12T15:38:14.336Z,0.57
2022-12-12T15:43:23.330Z,0.31
2022-12-12T15:48:27.463Z,0.09
2022-12-12T15:53:35.413Z,-0.05
2022-12-12T15:58:41.970Z,-0.16
2022-12-12T16:03:57.212Z,-0.34
2022-12-12T16:09:11.525Z,-0.46
2022-12-12T16:14:42.773Z,-0.59
2022-12-12T16:19:53.868Z,-0.69
2022-12-12T16:25:12.333Z,-0.82
2022-12-12T16:30:17.497Z,-0.91
2022-12-12T16:35:23.337Z,-0.97
2022-12-12T16:40:26.749Z,-1.06
2022-12-12T16:45:31.274Z,-1.15
2022-12-12T16:50:34.392Z,-1.28
2022-12-12T16:55:40.841Z,-1.32
2022-12-12T17:00:46.282Z,-1.40
2022-12-12T17:05:49.779Z,-1.55
2022-12-12T17:11:10.153Z,-1.59
2022-12-12T17:16:22.684Z,-1.71
2022-12-12T17:21:29.101Z,-1.74
2022-12-12T17:26:32.540Z,-1.79
2022-12-12T17:31:37.669Z,-1.88
2022-12-12T17:36:42.137Z,-1.93
2022-12-12T17:41:45.549Z,-1.99
2022-12-12T17:46:50.125Z,-2.06
2022-12-12T17:51:53.256Z,-2.12
2022-12-12T17:56:56.880Z,-2.13
2022-12-12T18:02:01.330Z,-2.17
2022-12-12T18:07:04.516Z,-2.22
2022-12-12T18:12:08.439Z,-2.25
2022-12-12T18:17:12.993Z,-2.34
2022-12-12T18:22:18.252Z,-2.41
2022-12-12T18:27:21.477Z,-2.48
2022-12-12T18:32:25.901Z,-2.56
2022-12-12T18:37:28.853Z,-2.57
2022-12-12T18:42:32.328Z,-2.63
2022-12-12T18:47:37.081Z,-2.70
2022-12-12T18:52:40.319Z,-2.77
2022-12-12T18:57:43.664Z,-2.82
2022-12-12T19:02:48.365Z,-2.89
2022-12-12T19:07:52.005Z,-3.00
2022-12-12T19:12:57.001Z,-2.98
2022-12-12T19:18:01.495Z,-3.02
2022-12-12T19:23:04.916Z,-3.03
2022-12-12T19:28:15.739Z,-3.07
2022-12-12T19:33:20.711Z,-3.16
2022-12-12T19:38:24.666Z,-3.22
2022-12-12T19:43:30.436Z,-3.23
2022-12-12T19:48:39.944Z,-3.29
2022-12-12T19:53:45.167Z,-3.34
2022-12-12T19:58:49.262Z,-3.40
2022-12-12T20:04:01.171Z,-3.50
2022-12-12T20:09:04.463Z,-3.49
2022-12-12T20:14:07.452Z,-3.56
2022-12-12T20:19:12.876Z,-3.58
2022-12-12T20:24:16.788Z,-3.62
2022-12-12T20:29:21.653Z,-3.68
2022-12-12T20:34:26.184Z,-3.81
2022-12-12T20:39:29.641Z,-3.79
2022-12-12T20:44:32.803Z,-3.85
2022-12-12T20:49:55.020Z,-3.89
2022-12-12T20:55:00.987Z,-3.91
2022-12-12T21:00:04.503Z,-3.96
2022-12-12T21:05:10.019Z,-3.99
2022-12-12T21:10:13.237Z,-4.00
2022-12-12T21:15:16.594Z,-4.05
2022-12-12T21:20:24.229Z,-4.08
2022-12-12T21:25:29.972Z,-4.14
2022-12-12T21:30:33.525Z,-4.19
2022-12-12T21:35:41.332Z,-4.24
2022-12-12T21:40:44.771Z,-4.37
2022-12-12T21:45:47.925Z,-4.33
2022-12-12T21:50:52.461Z,-4.40
2022-12-12T21:56:05.855Z,-4.45
2022-12-12T22:01:11.649Z,-4.49
2022-12-12T22:06:18.098Z,-4.51
2022-12-12T22:11:40.552Z,-4.57
2022-12-12T22:16:45.386Z,-4.57
2022-12-12T22:21:50.615Z,-4.64
2022-12-12T22:26:53.825Z,-4.65
2022-12-12T22:31:57.507Z,-4.75
2022-12-12T22:37:02.220Z,-4.72
2022-12-12T22:42:06.178Z,-4.74
2022-12-12T22:47:10.040Z,-4.78
2022-12-12T22:52:14.673Z,-4.90
2022-12-12T22:57:17.779Z,-4.90
2022-12-12T23:02:24.982Z,-4.94
2022-12-12T23:07:32.615Z,-5.00
2022-12-12T23:12:35.672Z,-5.02
2022-12-12T23:17:38.728Z,-5.02
2022-12-12T23:22:46.435Z,-5.07
2022-12-12T23:27:49.551Z,-5.07
2022-12-12T23:32:52.701Z,-5.11
2022-12-12T23:37:59.338Z,-5.06
2022-12-12T23:43:02.333Z,-5.07
2022-12-12T23:48:06.330Z,-5.13
2022-12-12T23:53:10.945Z,-5.21
2022-12-12T23:58:13.930Z,-5.19
